Aeroporto :
LOGIN :

Iscrizione | Disclaimer

   EN    FR    IT 

 










Sommario :    VFR   VFR Marginale   IFR   IFR Intensivo   IFR Molto Intensivo
Visibilità : 
Base nubi : 
>= 8 km
>= 3000ft
5 / 8 km
1000 / 3000 ft
1500m / 5 km
500 / 1000 ft
800 / 1500m
200 / 500 ft
< 800m
< 200 ft
Simboli :   Temporali  Nebbia  Neve Forte  Precipitazioni Forti  Vento > 20 kt
SIGMETs :   Varie  Temporali  Ghiacco  Turbolenza  Onda orograficha  Ceneri Vulcaniche






- Altitudine del aeroporto : 0 ft


ENQC - Troll C Platform

ULTIMO METAR :
  • 250120Z AUTO 21033KT 5000NDV -DZ OVC007/// 10/09 Q0996 W///S5

METARs OBSOLETI :
  • 250050Z AUTO 20035KT 9999NDV OVC010/// 10/08 Q0996 W///S5
  • 250020Z AUTO 20034KT 9000NDV OVC011/// 10/09 Q0996 W///S5
  • 242350Z AUTO 20034KT 9999NDV -SHRA OVC012/// 10/09 Q0996 W///S5
  • 242320Z AUTO 20036KT 6000NDV -SHRA OVC012/// 10/09 Q0996 W///S5
  • 242250Z AUTO 19034KT 9999NDV -SHRA OVC012/// 10/09 Q0996 W///S5

TAF N/A



MetMap, La meteo Aeronautica in un colpo d'occhio ! - Copyright ORBIFLY Dicembre 2007 - Disclaimer

ORBIFLY MET'MAP TEAM :

Programmazione e sviluppo : Alexandra Zaïnal
Concezione : Baudouin d'Aumeries
Aiuto per la programmazione : Marc-Olivier Méhu
Supporto tecnico e logistico : Manuel Goepfert
Aiuto per la traduzione : Arnaldo La Scala

Contatto : metmap@orbifly.com




FONTI E CREDITI :

   NOAA